createdAt,value
2023-01-23T00:13:45.305Z,12.4
2023-01-23T00:28:55.034Z,12.1
2023-01-23T00:44:05.060Z,12.5
2023-01-23T00:59:20.836Z,10.4
2023-01-23T01:14:30.875Z,11.9
2023-01-23T01:29:43.256Z,12.3
2023-01-23T01:44:53.708Z,12.1
2023-01-23T02:00:04.258Z,11.2
2023-01-23T02:15:13.981Z,12
2023-01-23T02:30:24.123Z,12.3
2023-01-23T02:45:34.567Z,12.6
2023-01-23T03:00:44.517Z,12.9
2023-01-23T03:15:54.857Z,13.1
2023-01-23T03:31:05.300Z,12.3
2023-01-23T03:46:15.712Z,12.1
2023-01-23T04:01:25.883Z,14.2
2023-01-23T04:16:35.503Z,14.5
2023-01-23T04:31:45.970Z,15.2
2023-01-23T04:46:55.966Z,16.5
2023-01-23T05:02:05.428Z,15.4
2023-01-23T05:17:15.452Z,16.4
2023-01-23T05:32:25.758Z,16.1
2023-01-23T05:47:35.901Z,17.6
2023-01-23T06:02:46.314Z,16.2
2023-01-23T06:17:56.923Z,15.1
2023-01-23T06:33:07.437Z,15.2
2023-01-23T06:48:18.094Z,15.6
2023-01-23T07:03:27.512Z,13.8
2023-01-23T07:18:37.868Z,16.4
2023-01-23T07:33:48.213Z,16.8
2023-01-23T07:48:58.633Z,18.1
2023-01-23T08:04:09.134Z,18
2023-01-23T08:19:19.025Z,19.1
2023-01-23T08:34:28.844Z,17.7
2023-01-23T08:49:40.305Z,19.7
2023-01-23T09:04:50.456Z,17.6
2023-01-23T09:20:00.886Z,17.3
2023-01-23T09:35:11.546Z,20.8
2023-01-23T09:50:22.256Z,17.8
2023-01-23T10:05:33.372Z,18.9
2023-01-23T10:20:43.597Z,19.5
2023-01-23T10:35:53.661Z,19.6
2023-01-23T10:51:04.134Z,20.8
2023-01-23T11:06:14.328Z,18.3
2023-01-23T11:21:24.261Z,18.5
2023-01-23T11:36:34.085Z,18.7
2023-01-23T11:51:44.211Z,18.9
2023-01-23T12:06:54.876Z,16.9
2023-01-23T12:22:04.896Z,16.8
2023-01-23T12:37:31.108Z,14.7
2023-01-23T12:52:43.396Z,17.7
2023-01-23T13:07:53.445Z,16.1
2023-01-23T13:23:03.500Z,19.3
2023-01-23T13:38:13.802Z,17.4
2023-01-23T13:53:23.964Z,20.6
2023-01-23T14:08:34.608Z,19
2023-01-23T14:23:44.637Z,18.9
2023-01-23T14:38:54.775Z,19.5
2023-01-23T14:54:04.300Z,16.5
2023-01-23T15:09:21.294Z,21.4
2023-01-23T15:24:31.854Z,17.5
2023-01-23T15:39:44.031Z,18.1
2023-01-23T15:54:54.374Z,18.7
2023-01-23T16:10:04.718Z,19.7
2023-01-23T16:25:14.539Z,22.4
2023-01-23T16:40:25.116Z,21.7
2023-01-23T16:55:33.897Z,18.8
2023-01-23T17:10:47.131Z,18.5
2023-01-23T17:26:02.046Z,17.5
2023-01-23T17:41:12.389Z,19.8
2023-01-23T17:56:22.235Z,19.3
2023-01-23T18:11:32.381Z,18.8
2023-01-23T18:26:44.243Z,18.2
2023-01-23T18:41:54.483Z,20.2
2023-01-23T18:57:04.515Z,20.8
2023-01-23T19:12:26.061Z,19.9
2023-01-23T19:27:36.668Z,18.7
2023-01-23T19:43:12.694Z,20.7
2023-01-23T19:58:25.412Z,20.5
2023-01-23T20:13:35.540Z,23.1
2023-01-23T20:28:46.927Z,22.2
2023-01-23T20:43:56.659Z,20.4
2023-01-23T20:59:06.675Z,22
2023-01-23T21:14:16.855Z,22.3
2023-01-23T21:29:27.369Z,19.8
2023-01-23T21:44:37.707Z,19
2023-01-23T21:59:47.860Z,20.9
2023-01-23T22:14:57.061Z,20.7
2023-01-23T22:30:07.302Z,21.1
2023-01-23T22:45:17.842Z,19.3
2023-01-23T23:00:27.876Z,18.4
2023-01-23T23:15:37.917Z,21.3
2023-01-23T23:30:47.743Z,21.2
2023-01-23T23:46:05.273Z,21
